Time;durP1;ratioP1;P1;durP2;ratioP2;P2;SDS_P1;SDS_P2;PMS_P1;PMS_P2;Temp;Humidity;BMP_temperature;BMP_pressure;BME280_temperature;BME280_humidity;BME280_pressure;Samples;Min_cycle;Max_cycle;Signal;HPM_P1;HPM_P2
2023/03/19 00:01:49;;;;;;;22.40;13.98;;;;;;;;;;5039731;28;20128;-79
2023/03/19 00:04:16;;;;;;;19.83;12.95;;;;;;;;;;5041110;28;20056;-79
2023/03/19 00:06:42;;;;;;;21.85;13.77;;;;;;;;;;5034153;28;20049;-80
2023/03/19 00:09:10;;;;;;;20.48;13.02;;;;;;;;;;5029668;28;20518;-80
2023/03/19 00:11:36;;;;;;;18.10;12.38;;;;;;;;;;5041793;28;20049;-77
2023/03/19 00:14:05;;;;;;;19.02;12.82;;;;;;;;;;5038196;28;20519;-78
2023/03/19 00:16:32;;;;;;;19.40;12.82;;;;;;;;;;5036397;28;20050;-78
2023/03/19 00:18:58;;;;;;;20.83;14.50;;;;;;;;;;5037220;28;20105;-78
2023/03/19 00:21:25;;;;;;;22.55;13.05;;;;;;;;;;5038042;28;20116;-78
2023/03/19 00:23:52;;;;;;;20.33;12.65;;;;;;;;;;5037834;28;20048;-78
2023/03/19 00:26:18;;;;;;;20.77;13.05;;;;;;;;;;5038848;28;20049;-78
2023/03/19 00:28:45;;;;;;;20.17;13.07;;;;;;;;;;5050147;28;20041;-78
2023/03/19 00:31:15;;;;;;;17.95;12.80;;;;;;;;;;5055495;28;20049;-77
2023/03/19 00:33:42;;;;;;;20.87;13.70;;;;;;;;;;5048817;28;20045;-78
2023/03/19 00:36:09;;;;;;;21.25;14.13;;;;;;;;;;5038941;28;20337;-80
2023/03/19 00:38:38;;;;;;;21.58;13.65;;;;;;;;;;5038595;28;20057;-81
2023/03/19 00:41:06;;;;;;;21.08;13.35;;;;;;;;;;5039133;28;20386;-80
2023/03/19 00:43:33;;;;;;;20.67;13.93;;;;;;;;;;5038355;28;20054;-80
2023/03/19 00:46:00;;;;;;;21.80;14.50;;;;;;;;;;5038272;28;20045;-79
2023/03/19 00:48:28;;;;;;;23.08;15.38;;;;;;;;;;5038200;28;20049;-80
2023/03/19 00:50:56;;;;;;;25.92;15.93;;;;;;;;;;5038558;28;20049;-78
2023/03/19 00:53:22;;;;;;;24.52;16.48;;;;;;;;;;5037606;28;20045;-78
2023/03/19 00:55:49;;;;;;;27.55;16.17;;;;;;;;;;5038178;28;20559;-78
2023/03/19 00:58:16;;;;;;;28.63;16.98;;;;;;;;;;5036458;28;20136;-79
2023/03/19 01:00:42;;;;;;;24.02;16.67;;;;;;;;;;5031315;28;20115;-80
2023/03/19 01:03:09;;;;;;;26.63;16.92;;;;;;;;;;5024742;28;20083;-80
2023/03/19 01:05:37;;;;;;;24.05;17.00;;;;;;;;;;5036623;28;20045;-79
2023/03/19 01:08:04;;;;;;;27.02;16.83;;;;;;;;;;5023068;28;20535;-80
2023/03/19 01:10:33;;;;;;;25.83;15.80;;;;;;;;;;5036604;28;20083;-79
2023/03/19 01:13:00;;;;;;;27.48;16.52;;;;;;;;;;5036151;28;20045;-78
2023/03/19 01:15:26;;;;;;;22.92;15.88;;;;;;;;;;5035308;28;20132;-77
2023/03/19 01:17:53;;;;;;;24.90;16.60;;;;;;;;;;5034473;28;20463;-77
2023/03/19 01:20:22;;;;;;;25.60;17.70;;;;;;;;;;5018444;28;20092;-78
2023/03/19 01:22:51;;;;;;;24.85;17.10;;;;;;;;;;5037028;28;20046;-78
2023/03/19 01:25:17;;;;;;;25.23;15.93;;;;;;;;;;5037199;28;20072;-77
2023/03/19 01:27:45;;;;;;;23.65;16.98;;;;;;;;;;5036253;28;20100;-78
2023/03/19 01:30:12;;;;;;;23.83;16.73;;;;;;;;;;5034261;28;20067;-77
2023/03/19 01:32:39;;;;;;;24.02;15.52;;;;;;;;;;5034407;28;20107;-77
2023/03/19 01:35:06;;;;;;;25.08;16.13;;;;;;;;;;5034551;28;20073;-77
2023/03/19 01:37:33;;;;;;;24.80;16.30;;;;;;;;;;5033145;28;20055;-77
2023/03/19 01:40:01;;;;;;;25.23;16.75;;;;;;;;;;5033030;28;20557;-79
2023/03/19 01:42:28;;;;;;;25.20;16.10;;;;;;;;;;5034592;28;20132;-78
2023/03/19 01:44:55;;;;;;;24.23;16.75;;;;;;;;;;5037182;28;20109;-78
2023/03/19 01:47:29;;;;;;;26.77;15.52;;;;;;;;;;5033913;28;20404;-77
2023/03/19 01:49:58;;;;;;;22.63;16.17;;;;;;;;;;5035349;28;20049;-80
2023/03/19 01:52:29;;;;;;;26.23;16.60;;;;;;;;;;5033993;28;20496;-78
2023/03/19 01:54:58;;;;;;;23.50;17.45;;;;;;;;;;5033561;28;20556;-78
2023/03/19 01:57:28;;;;;;;24.50;16.67;;;;;;;;;;5042592;28;20047;-79
2023/03/19 01:59:56;;;;;;;26.60;17.13;;;;;;;;;;5042614;28;20057;-79
2023/03/19 02:02:27;;;;;;;27.00;16.88;;;;;;;;;;5043180;28;20106;-78
2023/03/19 02:04:58;;;;;;;26.23;18.55;;;;;;;;;;5042537;28;20076;-79
2023/03/19 02:07:25;;;;;;;23.95;17.15;;;;;;;;;;5043106;28;20056;-80
2023/03/19 02:09:52;;;;;;;27.60;17.25;;;;;;;;;;5043115;28;20052;-80
2023/03/19 02:12:19;;;;;;;27.50;16.98;;;;;;;;;;5043014;28;20087;-80
2023/03/19 02:14:47;;;;;;;29.10;18.67;;;;;;;;;;5043788;28;20049;-79
2023/03/19 02:17:14;;;;;;;34.00;21.02;;;;;;;;;;5042604;28;20105;-79
2023/03/19 02:19:47;;;;;;;28.23;19.95;;;;;;;;;;5042932;28;20132;-79
2023/03/19 02:22:16;;;;;;;31.38;21.23;;;;;;;;;;5042978;28;20053;-79
2023/03/19 02:24:51;;;;;;;28.17;19.55;;;;;;;;;;5043806;28;20064;-79
2023/03/19 02:27:19;;;;;;;32.17;22.20;;;;;;;;;;5041647;28;20081;-81
2023/03/19 02:29:46;;;;;;;37.20;22.98;;;;;;;;;;5021261;28;20042;-79
2023/03/19 02:32:13;;;;;;;33.50;20.88;;;;;;;;;;5036760;28;20057;-80
2023/03/19 02:34:41;;;;;;;31.67;21.02;;;;;;;;;;5034918;28;20483;-79
2023/03/19 02:37:13;;;;;;;33.50;20.85;;;;;;;;;;5033624;28;20386;-78
2023/03/19 02:39:47;;;;;;;30.48;19.70;;;;;;;;;;5034607;28;20045;-79
2023/03/19 02:42:15;;;;;;;27.45;19.00;;;;;;;;;;5032715;28;20132;-78
2023/03/19 02:44:43;;;;;;;28.48;18.42;;;;;;;;;;5032681;28;20128;-78
2023/03/19 02:47:10;;;;;;;26.55;16.98;;;;;;;;;;5038394;28;20060;-79
2023/03/19 02:49:36;;;;;;;21.77;14.02;;;;;;;;;;5039312;28;20045;-78
2023/03/19 02:52:03;;;;;;;21.35;14.95;;;;;;;;;;5033134;28;20132;-77
2023/03/19 02:54:30;;;;;;;20.95;13.85;;;;;;;;;;5038469;28;20055;-78
2023/03/19 02:56:56;;;;;;;15.63;10.48;;;;;;;;;;5038896;28;20072;-78
2023/03/19 02:59:23;;;;;;;13.10;9.48;;;;;;;;;;5038955;28;20483;-80
2023/03/19 03:01:51;;;;;;;13.65;9.88;;;;;;;;;;5039283;28;20128;-80
2023/03/19 03:04:18;;;;;;;15.82;11.63;;;;;;;;;;5039919;28;20128;-80
2023/03/19 03:06:45;;;;;;;17.83;11.60;;;;;;;;;;5038201;28;20468;-81
2023/03/19 03:09:12;;;;;;;16.90;11.25;;;;;;;;;;5039382;28;20124;-81
2023/03/19 03:11:40;;;;;;;20.40;13.88;;;;;;;;;;5038492;28;20049;-79
2023/03/19 03:14:07;;;;;;;16.65;11.40;;;;;;;;;;5033544;28;20045;-80
2023/03/19 03:16:33;;;;;;;16.55;10.43;;;;;;;;;;5033966;28;20457;-81
2023/03/19 03:19:02;;;;;;;14.48;9.77;;;;;;;;;;5039875;28;20052;-80
2023/03/19 03:21:29;;;;;;;14.18;9.40;;;;;;;;;;5030149;22;20051;-51
2023/03/19 03:23:56;;;;;;;14.93;8.80;;;;;;;;;;4992530;28;20129;-56
2023/03/19 03:26:23;;;;;;;13.88;8.88;;;;;;;;;;4992018;28;20050;-51
2023/03/19 03:28:50;;;;;;;12.35;8.88;;;;;;;;;;4992454;28;20061;-54
2023/03/19 03:31:17;;;;;;;12.32;8.45;;;;;;;;;;4992447;28;20058;-53
2023/03/19 03:33:44;;;;;;;11.65;7.72;;;;;;;;;;4992554;28;20069;-55
2023/03/19 03:36:13;;;;;;;12.05;7.53;;;;;;;;;;4991823;28;20133;-55
2023/03/19 03:38:40;;;;;;;14.35;7.20;;;;;;;;;;4992120;28;20472;-58
2023/03/19 03:41:06;;;;;;;13.98;7.72;;;;;;;;;;4992130;28;20050;-56
2023/03/19 03:43:33;;;;;;;10.23;7.03;;;;;;;;;;4992364;28;20454;-55
2023/03/19 03:46:00;;;;;;;12.80;7.53;;;;;;;;;;4991750;28;20050;-56
2023/03/19 03:48:27;;;;;;;11.02;7.43;;;;;;;;;;4991976;28;20415;-54
2023/03/19 03:50:54;;;;;;;12.90;8.10;;;;;;;;;;4991907;28;20046;-54
2023/03/19 03:53:22;;;;;;;11.65;7.72;;;;;;;;;;4992080;28;20055;-55
2023/03/19 03:55:50;;;;;;;12.50;7.38;;;;;;;;;;4991730;28;20046;-58
2023/03/19 03:58:16;;;;;;;11.57;7.70;;;;;;;;;;4991936;28;20050;-55
2023/03/19 04:00:43;;;;;;;13.95;9.30;;;;;;;;;;4991925;28;20050;-58
2023/03/19 04:03:10;;;;;;;15.63;8.80;;;;;;;;;;4992131;28;20050;-53
2023/03/19 04:05:37;;;;;;;13.70;8.23;;;;;;;;;;4991614;28;20347;-56
2023/03/19 04:08:04;;;;;;;13.15;7.70;;;;;;;;;;4991849;28;20150;-54
2023/03/19 04:10:34;;;;;;;15.15;8.18;;;;;;;;;;4991952;28;20097;-55
2023/03/19 04:13:01;;;;;;;15.50;8.27;;;;;;;;;;4992205;28;20108;-56
2023/03/19 04:15:28;;;;;;;14.82;7.50;;;;;;;;;;4991592;28;20097;-54
2023/03/19 04:17:55;;;;;;;12.88;7.60;;;;;;;;;;4993664;28;20050;-52
2023/03/19 04:20:22;;;;;;;11.85;7.38;;;;;;;;;;4995074;28;20047;-57
2023/03/19 04:22:49;;;;;;;14.88;7.80;;;;;;;;;;4995862;28;20495;-56
2023/03/19 04:25:17;;;;;;;13.63;8.52;;;;;;;;;;4994940;28;20474;-55
2023/03/19 04:27:45;;;;;;;20.80;7.82;;;;;;;;;;4995478;28;20054;-53
2023/03/19 04:30:14;;;;;;;11.52;7.97;;;;;;;;;;4995224;28;20127;-54
2023/03/19 04:32:43;;;;;;;12.77;7.70;;;;;;;;;;4994943;28;20058;-52
2023/03/19 04:35:10;;;;;;;12.05;7.57;;;;;;;;;;4994807;28;20054;-56
2023/03/19 04:37:37;;;;;;;13.15;8.40;;;;;;;;;;4995017;28;20050;-56
2023/03/19 04:40:05;;;;;;;13.65;8.43;;;;;;;;;;4994637;28;20150;-55
2023/03/19 04:42:32;;;;;;;11.00;7.72;;;;;;;;;;4995357;28;20054;-57
2023/03/19 04:45:01;;;;;;;12.70;7.47;;;;;;;;;;4994929;28;20097;-56
2023/03/19 04:47:27;;;;;;;11.95;8.05;;;;;;;;;;4995179;28;20046;-56
2023/03/19 04:49:54;;;;;;;11.68;7.95;;;;;;;;;;4994828;28;20499;-59
2023/03/19 04:52:21;;;;;;;11.35;8.02;;;;;;;;;;4994866;28;20089;-58
2023/03/19 04:54:48;;;;;;;11.05;7.45;;;;;;;;;;4994875;28;20050;-54
2023/03/19 04:57:14;;;;;;;12.77;7.22;;;;;;;;;;4994899;28;20046;-54
2023/03/19 04:59:42;;;;;;;12.50;8.25;;;;;;;;;;4994314;28;20053;-55
2023/03/19 05:02:10;;;;;;;11.52;7.93;;;;;;;;;;4994862;28;20137;-57
2023/03/19 05:04:37;;;;;;;12.20;8.00;;;;;;;;;;4994827;28;20050;-53
2023/03/19 05:07:04;;;;;;;13.50;7.90;;;;;;;;;;4994152;28;20058;-56
2023/03/19 05:09:31;;;;;;;11.82;8.27;;;;;;;;;;4994612;28;20050;-56
2023/03/19 05:11:58;;;;;;;14.15;7.93;;;;;;;;;;4994373;28;20050;-55
2023/03/19 05:14:25;;;;;;;15.25;8.13;;;;;;;;;;4994653;28;20078;-52
2023/03/19 05:16:51;;;;;;;11.32;7.80;;;;;;;;;;4994432;28;20105;-53
2023/03/19 05:19:21;;;;;;;13.27;8.30;;;;;;;;;;4994264;28;20046;-53
2023/03/19 05:21:48;;;;;;;12.88;7.53;;;;;;;;;;4994253;28;20050;-55
2023/03/19 05:24:14;;;;;;;13.45;8.25;;;;;;;;;;4994345;28;20061;-55
2023/03/19 05:26:42;;;;;;;13.18;8.32;;;;;;;;;;4994163;28;20050;-56
2023/03/19 05:29:09;;;;;;;15.35;7.97;;;;;;;;;;4993517;28;20110;-54
2023/03/19 05:31:37;;;;;;;14.82;8.50;;;;;;;;;;4994312;28;20093;-54
2023/03/19 05:34:04;;;;;;;15.18;8.93;;;;;;;;;;4994270;28;20503;-52
2023/03/19 05:36:33;;;;;;;12.55;7.78;;;;;;;;;;4993940;28;20109;-56
2023/03/19 05:39:00;;;;;;;14.68;8.82;;;;;;;;;;4993897;28;20053;-53
2023/03/19 05:41:27;;;;;;;12.10;8.82;;;;;;;;;;4994024;28;20475;-57
2023/03/19 05:43:54;;;;;;;13.35;8.75;;;;;;;;;;4994258;28;20053;-54
2023/03/19 05:46:21;;;;;;;13.88;7.82;;;;;;;;;;4993686;28;20046;-55
2023/03/19 05:48:48;;;;;;;13.45;8.23;;;;;;;;;;4993489;28;20079;-55
2023/03/19 05:51:15;;;;;;;13.13;8.38;;;;;;;;;;4993768;28;20054;-57
2023/03/19 05:53:43;;;;;;;17.02;10.13;;;;;;;;;;4993525;28;20058;-52
2023/03/19 05:56:10;;;;;;;14.57;9.32;;;;;;;;;;4993464;28;20480;-56
2023/03/19 05:58:37;;;;;;;14.10;9.15;;;;;;;;;;4993301;28;20053;-51
2023/03/19 06:01:04;;;;;;;16.30;8.77;;;;;;;;;;4993189;28;20053;-54
2023/03/19 06:03:31;;;;;;;16.67;10.02;;;;;;;;;;4993430;28;20050;-52
2023/03/19 06:05:58;;;;;;;14.70;8.63;;;;;;;;;;4990605;28;20058;-55
2023/03/19 06:08:25;;;;;;;15.30;9.50;;;;;;;;;;4993164;28;20487;-56
2023/03/19 06:10:54;;;;;;;14.73;9.02;;;;;;;;;;4993560;28;20598;-57
2023/03/19 06:13:21;;;;;;;16.05;9.90;;;;;;;;;;4993009;28;20060;-55
2023/03/19 06:15:49;;;;;;;16.02;9.52;;;;;;;;;;4993118;28;20058;-58
2023/03/19 06:18:16;;;;;;;14.23;9.15;;;;;;;;;;4993099;28;20050;-55
2023/03/19 06:20:43;;;;;;;12.50;9.13;;;;;;;;;;4993163;28;20499;-56
2023/03/19 06:23:10;;;;;;;18.15;9.85;;;;;;;;;;4992958;28;20054;-53
2023/03/19 06:25:37;;;;;;;17.05;10.63;;;;;;;;;;4992500;28;20057;-54
2023/03/19 06:28:06;;;;;;;16.42;10.65;;;;;;;;;;4993032;28;20050;-54
2023/03/19 06:30:32;;;;;;;15.98;10.50;;;;;;;;;;4993045;28;20050;-55
2023/03/19 06:32:59;;;;;;;18.58;10.88;;;;;;;;;;4992862;28;20062;-52
2023/03/19 06:35:26;;;;;;;19.15;11.65;;;;;;;;;;4992633;28;20054;-53
2023/03/19 06:37:53;;;;;;;16.13;10.30;;;;;;;;;;4992954;28;20518;-53
2023/03/19 06:40:20;;;;;;;18.25;10.52;;;;;;;;;;4992495;28;20484;-51
2023/03/19 06:42:48;;;;;;;16.38;11.18;;;;;;;;;;4992858;28;20077;-55
2023/03/19 06:45:18;;;;;;;17.75;10.88;;;;;;;;;;4992335;28;20134;-52
2023/03/19 06:47:45;;;;;;;18.15;12.18;;;;;;;;;;4993023;28;20149;-52
2023/03/19 06:50:13;;;;;;;20.13;12.43;;;;;;;;;;4992050;28;20169;-55
2023/03/19 06:52:40;;;;;;;16.23;10.95;;;;;;;;;;4992463;28;20157;-52
2023/03/19 06:55:08;;;;;;;18.75;11.43;;;;;;;;;;4992545;28;20484;-59
2023/03/19 06:57:35;;;;;;;16.75;10.68;;;;;;;;;;4992622;28;20057;-55
2023/03/19 07:00:02;;;;;;;19.10;11.68;;;;;;;;;;4992365;28;20058;-56
2023/03/19 07:02:31;;;;;;;19.75;12.27;;;;;;;;;;4992801;28;20054;-54
2023/03/19 07:04:58;;;;;;;18.70;11.27;;;;;;;;;;4992500;28;20054;-56
2023/03/19 07:07:25;;;;;;;17.65;11.90;;;;;;;;;;4992744;28;20507;-54
2023/03/19 07:09:52;;;;;;;17.92;12.18;;;;;;;;;;4992631;28;20116;-53
2023/03/19 07:12:19;;;;;;;15.27;10.27;;;;;;;;;;4992135;28;20061;-54
2023/03/19 07:14:46;;;;;;;18.17;12.32;;;;;;;;;;4992859;28;20479;-54
2023/03/19 07:17:12;;;;;;;16.00;10.98;;;;;;;;;;4991972;28;20050;-55
2023/03/19 07:19:41;;;;;;;16.88;11.05;;;;;;;;;;4992607;28;20057;-57
2023/03/19 07:22:08;;;;;;;19.77;10.77;;;;;;;;;;4992022;28;20073;-53
2023/03/19 07:24:34;;;;;;;16.92;11.55;;;;;;;;;;4992433;28;20447;-56
2023/03/19 07:27:01;;;;;;;18.20;10.88;;;;;;;;;;4992173;28;20046;-56
2023/03/19 07:29:28;;;;;;;16.20;10.02;;;;;;;;;;4992452;28;20380;-54
2023/03/19 07:31:55;;;;;;;15.75;9.98;;;;;;;;;;4992262;28;20054;-56
2023/03/19 07:34:22;;;;;;;15.52;10.38;;;;;;;;;;4992380;28;20058;-54
2023/03/19 07:36:51;;;;;;;16.08;10.85;;;;;;;;;;4991920;28;20054;-53
2023/03/19 07:39:18;;;;;;;14.65;10.05;;;;;;;;;;4992239;28;20061;-56
2023/03/19 07:41:47;;;;;;;14.27;9.65;;;;;;;;;;4991964;28;20050;-56
2023/03/19 07:44:14;;;;;;;14.68;9.93;;;;;;;;;;4991746;28;20046;-53
2023/03/19 07:46:41;;;;;;;12.85;8.90;;;;;;;;;;4991937;28;20101;-52
2023/03/19 07:49:08;;;;;;;13.25;8.60;;;;;;;;;;4991841;28;20047;-54
2023/03/19 07:51:35;;;;;;;14.20;9.30;;;;;;;;;;4991901;28;20046;-51
2023/03/19 07:54:04;;;;;;;16.52;8.95;;;;;;;;;;4995860;28;20153;-55
2023/03/19 07:56:30;;;;;;;15.93;8.35;;;;;;;;;;4996058;28;20415;-51
2023/03/19 07:58:58;;;;;;;12.38;8.55;;;;;;;;;;4995608;28;20054;-53
2023/03/19 08:01:25;;;;;;;15.02;7.88;;;;;;;;;;4995408;28;20054;-54
2023/03/19 08:03:52;;;;;;;10.50;7.30;;;;;;;;;;4995504;28;20054;-56
2023/03/19 08:06:19;;;;;;;12.23;7.22;;;;;;;;;;4990432;28;20415;-53
2023/03/19 08:08:46;;;;;;;12.73;8.02;;;;;;;;;;4976369;28;20105;-55
2023/03/19 08:11:14;;;;;;;12.45;7.22;;;;;;;;;;4992364;28;20483;-53
2023/03/19 08:13:41;;;;;;;9.85;7.30;;;;;;;;;;4995711;28;20054;-54
2023/03/19 08:16:08;;;;;;;9.85;7.20;;;;;;;;;;4995252;28;20090;-56
2023/03/19 08:18:35;;;;;;;9.77;6.65;;;;;;;;;;4995632;28;20058;-53
2023/03/19 08:21:03;;;;;;;12.43;7.00;;;;;;;;;;4995356;28;20051;-54
2023/03/19 08:23:29;;;;;;;11.40;6.75;;;;;;;;;;4995410;28;20512;-55
2023/03/19 08:25:56;;;;;;;9.80;6.75;;;;;;;;;;4995038;28;20140;-55
2023/03/19 08:28:25;;;;;;;10.77;7.13;;;;;;;;;;4995699;28;20129;-56
2023/03/19 08:30:51;;;;;;;12.48;7.45;;;;;;;;;;4995295;28;20050;-55
2023/03/19 08:33:18;;;;;;;10.50;7.05;;;;;;;;;;4995369;28;20428;-53
2023/03/19 08:35:45;;;;;;;10.82;6.65;;;;;;;;;;4996993;28;20046;-58
2023/03/19 08:38:12;;;;;;;10.25;7.13;;;;;;;;;;5011885;28;20050;-52
2023/03/19 08:40:39;;;;;;;10.30;6.53;;;;;;;;;;5004209;28;20049;-51
2023/03/19 08:43:06;;;;;;;11.07;7.00;;;;;;;;;;5013069;28;20152;-52
2023/03/19 08:45:35;;;;;;;11.55;6.60;;;;;;;;;;4995026;28;20133;-51
2023/03/19 08:48:02;;;;;;;10.93;7.47;;;;;;;;;;4994875;28;20097;-56
2023/03/19 08:50:29;;;;;;;11.32;6.45;;;;;;;;;;4975876;28;20302;-50
2023/03/19 08:52:56;;;;;;;10.40;6.72;;;;;;;;;;4995409;28;20061;-54
2023/03/19 08:55:23;;;;;;;10.68;6.30;;;;;;;;;;4995630;28;20050;-54
2023/03/19 08:57:50;;;;;;;10.30;6.50;;;;;;;;;;4994795;28;20050;-57
2023/03/19 09:00:18;;;;;;;9.95;6.50;;;;;;;;;;4994644;28;20054;-58
2023/03/19 09:02:46;;;;;;;11.65;7.00;;;;;;;;;;4994539;28;20055;-53
2023/03/19 09:05:13;;;;;;;12.65;7.13;;;;;;;;;;4993497;28;20076;-58
2023/03/19 09:07:40;;;;;;;9.77;7.10;;;;;;;;;;4978773;28;20058;-53
2023/03/19 09:10:08;;;;;;;9.27;6.75;;;;;;;;;;4990003;28;20054;-60
2023/03/19 09:12:34;;;;;;;10.73;6.80;;;;;;;;;;4994514;28;20046;-58
2023/03/19 09:15:02;;;;;;;11.82;6.45;;;;;;;;;;4994495;28;20138;-59
2023/03/19 09:17:29;;;;;;;12.18;7.75;;;;;;;;;;4994587;28;20515;-59
2023/03/19 09:19:57;;;;;;;9.00;6.28;;;;;;;;;;4994325;28;20050;-53
2023/03/19 09:22:24;;;;;;;11.18;6.85;;;;;;;;;;4994521;28;20058;-57
2023/03/19 09:24:51;;;;;;;10.82;6.97;;;;;;;;;;4994651;28;20058;-55
2023/03/19 09:27:19;;;;;;;10.50;7.00;;;;;;;;;;5025982;23;20044;-79
2023/03/19 09:29:46;;;;;;;9.30;6.60;;;;;;;;;;5044795;28;20518;-78
2023/03/19 09:32:13;;;;;;;9.15;6.40;;;;;;;;;;5057779;28;20118;-83
2023/03/19 09:34:40;;;;;;;10.25;7.18;;;;;;;;;;5060160;28;20651;-79
2023/03/19 09:37:10;;;;;;;11.48;7.15;;;;;;;;;;5054708;28;20133;-80
2023/03/19 09:39:37;;;;;;;10.20;5.85;;;;;;;;;;5038815;28;20055;-81
2023/03/19 09:42:19;;;;;;;9.82;6.38;;;;;;;;;;5038738;28;20053;-80
2023/03/19 09:44:46;;;;;;;10.07;6.25;;;;;;;;;;5039867;28;20068;-78
2023/03/19 09:47:24;;;;;;;8.93;5.85;;;;;;;;;;5037834;28;20053;-80
2023/03/19 09:49:54;;;;;;;10.93;6.70;;;;;;;;;;5036482;28;20057;-79
2023/03/19 09:52:35;;;;;;;9.07;5.80;;;;;;;;;;5038513;28;20037;-78
2023/03/19 09:55:11;;;;;;;8.57;5.70;;;;;;;;;;5038971;28;20101;-81
2023/03/19 09:57:39;;;;;;;8.95;6.00;;;;;;;;;;5041679;28;20045;-82
2023/03/19 10:00:21;;;;;;;12.68;6.43;;;;;;;;;;5040688;28;20408;-81
2023/03/19 10:02:54;;;;;;;9.45;6.10;;;;;;;;;;5038554;28;20052;-80
2023/03/19 10:05:30;;;;;;;8.38;5.75;;;;;;;;;;5038282;28;20041;-82
2023/03/19 10:08:27;;;;;;;8.25;5.78;;;;;;;;;;5024862;28;20055;-81
2023/03/19 10:11:08;;;;;;;9.85;6.50;;;;;;;;;;5051451;28;20045;-80
2023/03/19 10:13:45;;;;;;;9.45;5.78;;;;;;;;;;5058357;28;20045;-79
2023/03/19 10:16:16;;;;;;;8.30;5.75;;;;;;;;;;5040450;28;20128;-80
2023/03/19 10:18:48;;;;;;;27.60;7.88;;;;;;;;;;5038125;28;20527;-84
2023/03/19 10:21:23;;;;;;;13.00;6.05;;;;;;;;;;5038106;28;20420;-77
2023/03/19 10:23:54;;;;;;;8.70;5.53;;;;;;;;;;5056184;28;20049;-83
2023/03/19 10:26:25;;;;;;;9.98;6.32;;;;;;;;;;5055782;28;20052;-78
2023/03/19 10:29:03;;;;;;;9.55;5.68;;;;;;;;;;5043211;28;20060;-80
2023/03/19 10:31:40;;;;;;;9.25;5.43;;;;;;;;;;5028130;28;20107;-82
2023/03/19 10:34:30;;;;;;;9.80;5.57;;;;;;;;;;5039037;28;20093;-80
2023/03/19 10:37:02;;;;;;;7.25;5.30;;;;;;;;;;5037264;28;20060;-81
2023/03/19 10:39:33;;;;;;;8.15;5.18;;;;;;;;;;5040221;28;20056;-79
2023/03/19 10:42:03;;;;;;;;;;;;;;;;;;5042188;28;20556;-79
2023/03/19 10:44:34;;;;;;;7.80;5.18;;;;;;;;;;5040463;28;20360;-80
2023/03/19 10:47:10;;;;;;;8.32;4.85;;;;;;;;;;5036692;28;20085;-81
2023/03/19 10:49:37;;;;;;;9.63;5.25;;;;;;;;;;5037933;28;20048;-79
2023/03/19 10:52:05;;;;;;;8.00;4.68;;;;;;;;;;5038625;28;20072;-80
2023/03/19 10:54:33;;;;;;;7.88;5.20;;;;;;;;;;5034357;28;20057;-80
2023/03/19 10:57:00;;;;;;;8.07;5.50;;;;;;;;;;5038804;28;20045;-80
2023/03/19 10:59:32;;;;;;;10.32;6.20;;;;;;;;;;5039213;28;20041;-79
2023/03/19 11:02:02;;;;;;;9.40;5.80;;;;;;;;;;5039526;28;20046;-79
2023/03/19 11:04:31;;;;;;;8.02;5.47;;;;;;;;;;5041021;28;20041;-80
2023/03/19 11:07:03;;;;;;;7.63;5.00;;;;;;;;;;5028365;28;20058;-80
2023/03/19 11:09:35;;;;;;;8.40;5.03;;;;;;;;;;5027831;28;20041;-81
2023/03/19 11:12:08;;;;;;;8.50;5.72;;;;;;;;;;5018163;28;20081;-81
2023/03/19 11:14:37;;;;;;;7.63;4.78;;;;;;;;;;5017199;28;20049;-81
2023/03/19 11:17:07;;;;;;;9.35;5.70;;;;;;;;;;5018839;28;20046;-81
2023/03/19 11:19:40;;;;;;;7.47;4.95;;;;;;;;;;5023534;28;20069;-80
2023/03/19 11:22:16;;;;;;;7.75;4.57;;;;;;;;;;5038081;28;20052;-79
2023/03/19 11:24:50;;;;;;;7.88;4.80;;;;;;;;;;5036767;28;20041;-81
2023/03/19 11:27:17;;;;;;;6.82;4.72;;;;;;;;;;5037940;28;20061;-81
2023/03/19 11:29:45;;;;;;;10.48;5.10;;;;;;;;;;5041209;28;20522;-80
2023/03/19 11:32:33;;;;;;;9.50;5.90;;;;;;;;;;5040322;28;20053;-80
2023/03/19 11:35:07;;;;;;;9.00;5.20;;;;;;;;;;5035385;28;20118;-81
2023/03/19 11:37:48;;;;;;;8.50;4.75;;;;;;;;;;5040648;28;20102;-81
2023/03/19 11:40:26;;;;;;;7.82;4.28;;;;;;;;;;5040398;28;20045;-82
2023/03/19 11:43:18;;;;;;;9.60;5.30;;;;;;;;;;5039967;28;20080;-81
2023/03/19 11:45:55;;;;;;;9.27;6.00;;;;;;;;;;5039999;28;20049;-81
2023/03/19 11:48:36;;;;;;;9.43;6.15;;;;;;;;;;5037958;28;20104;-79
2023/03/19 11:51:06;;;;;;;;;;;;;;;;;;5039377;28;20496;-81
2023/03/19 11:53:41;;;;;;;6.90;4.57;;;;;;;;;;5038164;28;19959;-80
2023/03/19 11:56:18;;;;;;;7.93;4.60;;;;;;;;;;5039199;28;20556;-80
2023/03/19 11:59:04;;;;;;;7.32;4.75;;;;;;;;;;5039775;28;20076;-80
2023/03/19 12:01:54;;;;;;;9.43;5.10;;;;;;;;;;5038237;28;20050;-80
2023/03/19 12:04:41;;;;;;;6.47;4.43;;;;;;;;;;5039448;28;20046;-79
2023/03/19 12:07:18;;;;;;;7.60;4.88;;;;;;;;;;5034964;28;20049;-81
2023/03/19 12:09:55;;;;;;;9.60;4.82;;;;;;;;;;5037807;28;20049;-77
2023/03/19 12:12:26;;;;;;;8.50;5.03;;;;;;;;;;5020322;28;20168;-81
2023/03/19 12:15:08;;;;;;;7.82;5.05;;;;;;;;;;5028542;28;20656;-80
2023/03/19 12:17:57;;;;;;;12.15;5.90;;;;;;;;;;5040567;28;20132;-79
2023/03/19 12:20:31;;;;;;;7.47;5.28;;;;;;;;;;5023849;28;20080;-80
2023/03/19 12:23:05;;;;;;;7.60;4.88;;;;;;;;;;5037719;28;20049;-79
2023/03/19 12:25:45;;;;;;;7.13;5.05;;;;;;;;;;5041957;28;20379;-80
2023/03/19 12:28:23;;;;;;;8.30;4.95;;;;;;;;;;5039308;28;20053;-79
2023/03/19 12:31:09;;;;;;;9.20;7.05;;;;;;;;;;5037926;28;20451;-80
2023/03/19 12:33:46;;;;;;;6.97;4.80;;;;;;;;;;5036969;28;20073;-81
2023/03/19 12:36:17;;;;;;;9.38;5.72;;;;;;;;;;5035588;28;20049;-82
2023/03/19 12:38:47;;;;;;;10.80;5.28;;;;;;;;;;5034968;28;20075;-80
2023/03/19 12:41:20;;;;;;;6.72;5.22;;;;;;;;;;5036890;28;20128;-79
2023/03/19 12:43:56;;;;;;;6.93;4.65;;;;;;;;;;5040793;28;20073;-79
2023/03/19 12:46:27;;;;;;;8.75;4.45;;;;;;;;;;5038849;28;20049;-80
2023/03/19 12:49:00;;;;;;;7.25;4.32;;;;;;;;;;5037619;28;20064;-81
2023/03/19 12:51:30;;;;;;;7.45;4.93;;;;;;;;;;5040849;28;20562;-80
2023/03/19 12:54:01;;;;;;;6.80;4.25;;;;;;;;;;5039482;28;20103;-80
2023/03/19 12:56:35;;;;;;;7.95;4.70;;;;;;;;;;5038771;28;20404;-85
2023/03/19 12:59:12;;;;;;;8.48;4.90;;;;;;;;;;5042556;28;20042;-84
2023/03/19 13:01:42;;;;;;;8.23;4.57;;;;;;;;;;5040857;28;20045;-80
2023/03/19 13:04:13;;;;;;;8.43;4.53;;;;;;;;;;5034708;28;20099;-79
2023/03/19 13:06:47;;;;;;;6.55;4.32;;;;;;;;;;5044132;28;20049;-78
2023/03/19 13:09:24;;;;;;;6.47;4.20;;;;;;;;;;5038573;28;20073;-80
2023/03/19 13:11:54;;;;;;;7.43;4.60;;;;;;;;;;5039301;28;20053;-80
2023/03/19 13:14:29;;;;;;;7.30;4.90;;;;;;;;;;5041708;28;20042;-78
2023/03/19 13:17:03;;;;;;;7.65;4.60;;;;;;;;;;5043982;28;20123;-79
2023/03/19 13:19:35;;;;;;;8.27;4.20;;;;;;;;;;5037854;28;20068;-86
2023/03/19 13:22:08;;;;;;;6.07;3.83;;;;;;;;;;5034670;28;20141;-78
2023/03/19 13:24:38;;;;;;;8.45;4.50;;;;;;;;;;5031933;28;20076;-78
2023/03/19 13:27:07;;;;;;;6.03;3.87;;;;;;;;;;4977940;28;1245572;-79
2023/03/19 13:29:37;;;;;;;7.53;4.40;;;;;;;;;;5039905;28;20053;-80
2023/03/19 13:32:07;;;;;;;6.93;4.43;;;;;;;;;;5045004;28;20140;-79
2023/03/19 13:34:36;;;;;;;7.30;4.47;;;;;;;;;;5039865;28;20651;-78
2023/03/19 13:37:12;;;;;;;7.45;4.50;;;;;;;;;;5024258;28;20074;-78
2023/03/19 13:39:40;;;;;;;6.15;4.10;;;;;;;;;;5037163;28;20045;-79
2023/03/19 13:42:24;;;;;;;6.00;4.13;;;;;;;;;;5045112;28;20049;-80
2023/03/19 13:45:04;;;;;;;6.57;3.50;;;;;;;;;;5044957;28;20045;-79
2023/03/19 13:47:42;;;;;;;6.75;3.53;;;;;;;;;;5038648;28;20454;-79
2023/03/19 13:50:32;;;;;;;7.95;3.67;;;;;;;;;;5019445;28;20108;-78
2023/03/19 13:53:23;;;;;;;4.93;3.25;;;;;;;;;;5038886;28;20423;-79
2023/03/19 13:55:55;;;;;;;8.00;5.03;;;;;;;;;;5033295;28;20447;-79
2023/03/19 14:01:32;;;;;;;6.68;4.25;;;;;;;;;;5019164;28;20511;-78
2023/03/19 14:04:00;;;;;;;;;;;;;;;;;;5037517;28;20046;-79
2023/03/19 14:06:38;;;;;;;7.25;4.20;;;;;;;;;;5036691;28;19921;-79
2023/03/19 14:09:07;;;;;;;7.90;4.53;;;;;;;;;;5036238;28;20049;-79
2023/03/19 14:11:36;;;;;;;6.15;3.30;;;;;;;;;;5040792;28;20082;-80
2023/03/19 14:14:05;;;;;;;8.25;4.25;;;;;;;;;;5043473;28;20042;-80
2023/03/19 14:16:36;;;;;;;7.22;4.00;;;;;;;;;;5043101;28;20507;-79
2023/03/19 14:19:10;;;;;;;7.65;4.40;;;;;;;;;;5044205;28;20493;-80
2023/03/19 14:21:41;;;;;;;8.45;4.10;;;;;;;;;;5036972;28;20045;-79
2023/03/19 14:24:28;;;;;;;6.05;4.10;;;;;;;;;;5038608;28;20049;-79
2023/03/19 14:26:59;;;;;;;7.93;3.60;;;;;;;;;;5040171;28;20091;-79
2023/03/19 14:29:26;;;;;;;10.00;4.03;;;;;;;;;;5036871;28;20073;-78
2023/03/19 14:31:59;;;;;;;7.63;3.92;;;;;;;;;;5034645;28;20045;-78
2023/03/19 14:34:29;;;;;;;7.35;4.15;;;;;;;;;;5037575;28;20049;-80
2023/03/19 14:37:00;;;;;;;6.43;3.53;;;;;;;;;;5038274;28;20484;-80
2023/03/19 14:39:30;;;;;;;6.55;3.50;;;;;;;;;;5037642;28;20078;-76
2023/03/19 14:42:02;;;;;;;7.07;3.55;;;;;;;;;;5021439;28;20080;-80
2023/03/19 14:44:59;;;;;;;8.05;3.65;;;;;;;;;;5042152;28;20083;-78
2023/03/19 14:47:49;;;;;;;6.38;3.63;;;;;;;;;;5052438;28;20049;-79
2023/03/19 14:50:33;;;;;;;5.93;3.45;;;;;;;;;;5050036;28;20042;-79